Time;durP1;ratioP1;P1;durP2;ratioP2;P2;SDS_P1;SDS_P2;PMS_P1;PMS_P2;Temp;Humidity;BMP_temperature;BMP_pressure;BME280_temperature;BME280_humidity;BME280_pressure;Samples;Min_cycle;Max_cycle;Signal;HPM_P1;HPM_P2
2023/07/01 00:00:27;;;;;;;;;;;17.90;99.90;;;;;;2040101;29;19918;-71
2023/07/01 00:01:33;;;;;;;;;;;17.90;99.90;;;;;;2038615;29;19989;-71
2023/07/01 00:02:36;;;;;;;;;;;17.90;99.90;;;;;;2040831;29;19914;-70
2023/07/01 00:03:37;;;;;;;;;;;17.90;99.90;;;;;;2040586;29;20305;-71
2023/07/01 00:04:37;;;;;;;;;;;17.90;99.90;;;;;;2049748;28;19913;-72
2023/07/01 00:05:38;;;;;;;;;;;17.90;99.90;;;;;;2047099;28;19918;-70
2023/07/01 00:06:41;;;;;;;;;;;17.90;99.90;;;;;;2040012;28;19938;-70
2023/07/01 00:07:41;;;;;;;;;;;17.90;99.90;;;;;;2039529;28;19914;-71
2023/07/01 00:08:42;;;;;;;;;;;17.90;99.90;;;;;;2039582;28;19911;-71
2023/07/01 00:09:42;;;;;;;;;;;17.90;99.90;;;;;;2040398;28;19970;-70
2023/07/01 00:10:43;;;;;;;;;;;17.90;99.90;;;;;;2029673;29;20386;-70
2023/07/01 00:11:43;;;;;;;;;;;18.00;99.90;;;;;;2032251;29;19919;-71
2023/07/01 00:12:44;;;;;;;;;;;18.00;99.90;;;;;;2045205;28;19933;-71
2023/07/01 00:13:44;;;;;;;;;;;18.00;99.90;;;;;;2042752;29;19911;-71
2023/07/01 00:14:45;;;;;;;;;;;18.00;99.90;;;;;;2038995;28;19949;-71
2023/07/01 00:15:45;;;;;;;;;;;18.10;99.90;;;;;;2039046;28;19958;-70
2023/07/01 00:16:46;;;;;;;;;;;18.10;99.90;;;;;;2047084;28;20701;-72
2023/07/01 00:17:46;;;;;;;;;;;18.10;99.90;;;;;;2042052;28;19915;-71
2023/07/01 00:18:47;;;;;;;;;;;18.10;99.90;;;;;;2049961;28;19942;-71
2023/07/01 00:19:47;;;;;;;;;;;18.10;99.90;;;;;;2048313;28;19933;-71
2023/07/01 00:20:48;;;;;;;;;;;18.10;99.90;;;;;;2041132;29;20572;-70
2023/07/01 00:21:48;;;;;;;;;;;18.10;99.90;;;;;;2045573;28;20015;-71
2023/07/01 00:22:49;;;;;;;;;;;18.10;99.90;;;;;;2046607;28;19914;-71
2023/07/01 00:23:49;;;;;;;;;;;18.10;99.90;;;;;;2039462;28;19907;-71
2023/07/01 00:24:50;;;;;;;;;;;18.10;99.90;;;;;;2036720;28;19914;-71
2023/07/01 00:25:50;;;;;;;;;;;18.10;99.90;;;;;;2042676;28;19921;-70
2023/07/01 00:26:51;;;;;;;;;;;18.10;99.90;;;;;;2047923;28;20118;-71
2023/07/01 00:27:51;;;;;;;;;;;18.10;99.90;;;;;;2046558;28;20391;-71
2023/07/01 00:28:52;;;;;;;;;;;18.20;99.90;;;;;;2040571;29;19918;-71
2023/07/01 00:29:54;;;;;;;;;;;18.10;99.90;;;;;;2039945;29;19914;-70
2023/07/01 00:30:54;;;;;;;;;;;18.20;99.90;;;;;;2041324;29;19986;-70
2023/07/01 00:31:55;;;;;;;;;;;18.20;99.90;;;;;;2047441;28;19914;-71
2023/07/01 00:32:56;;;;;;;;;;;18.20;99.90;;;;;;2046977;28;20005;-71
2023/07/01 00:33:56;;;;;;;;;;;18.20;99.90;;;;;;2039393;28;19958;-71
2023/07/01 00:34:57;;;;;;;;;;;18.20;99.90;;;;;;2041519;28;19911;-71
2023/07/01 00:35:58;;;;;;;;;;;18.20;99.90;;;;;;2041681;28;19914;-70
2023/07/01 00:36:58;;;;;;;;;;;18.20;99.90;;;;;;2044401;28;19925;-71
2023/07/01 00:37:59;;;;;;;;;;;18.20;99.90;;;;;;2037576;29;19919;-72
2023/07/01 00:38:59;;;;;;;;;;;18.20;99.90;;;;;;2040905;29;19919;-72
2023/07/01 00:40:00;;;;;;;;;;;18.30;99.90;;;;;;2048946;28;19910;-72
2023/07/01 00:41:00;;;;;;;;;;;18.30;99.90;;;;;;2047058;28;19934;-71
2023/07/01 00:42:02;;;;;;;;;;;18.20;99.90;;;;;;2039890;28;19918;-71
2023/07/01 00:43:02;;;;;;;;;;;18.20;99.90;;;;;;2039579;28;20330;-71
2023/07/01 00:44:06;;;;;;;;;;;18.20;99.90;;;;;;2036760;29;20034;-71
2023/07/01 00:45:06;;;;;;;;;;;18.20;99.90;;;;;;2041241;28;19958;-71
2023/07/01 00:46:07;;;;;;;;;;;18.20;99.90;;;;;;2036395;29;20045;-71
2023/07/01 00:47:08;;;;;;;;;;;18.20;99.90;;;;;;2044367;28;19910;-71
2023/07/01 00:48:16;;;;;;;;;;;18.20;99.90;;;;;;2045260;28;20294;-71
2023/07/01 00:49:16;;;;;;;;;;;18.20;99.90;;;;;;2036411;29;19968;-71
2023/07/01 00:50:17;;;;;;;;;;;18.20;99.90;;;;;;2038100;29;19915;-71
2023/07/01 00:51:18;;;;;;;;;;;18.20;99.90;;;;;;2038580;29;20520;-71
2023/07/01 00:52:18;;;;;;;;;;;18.30;99.90;;;;;;2039548;28;20366;-71
2023/07/01 00:53:19;;;;;;;;;;;18.30;99.90;;;;;;2039709;28;19919;-70
2023/07/01 00:54:20;;;;;;;;;;;18.20;99.90;;;;;;2038175;29;19957;-72
2023/07/01 00:55:21;;;;;;;;;;;18.20;99.90;;;;;;2041046;29;19919;-70
2023/07/01 00:56:22;;;;;;;;;;;18.20;99.90;;;;;;2047529;28;19945;-71
2023/07/01 00:57:22;;;;;;;;;;;18.20;99.90;;;;;;2047408;28;19913;-70
2023/07/01 00:58:23;;;;;;;;;;;18.20;99.90;;;;;;2047314;28;19914;-71
2023/07/01 00:59:25;;;;;;;;;;;18.20;99.90;;;;;;2049118;28;20592;-71
2023/07/01 01:00:25;;;;;;;;;;;18.20;99.90;;;;;;2039487;28;19949;-71
2023/07/01 01:01:29;;;;;;;;;;;18.20;99.90;;;;;;2038735;28;19944;-70
2023/07/01 01:02:35;;;;;;;;;;;18.20;99.90;;;;;;2038857;28;19911;-70
2023/07/01 01:04:00;;;;;;;;;;;18.20;99.90;;;;;;2039067;29;20393;-70
2023/07/01 01:05:10;;;;;;;;;;;18.20;99.90;;;;;;2037470;29;19938;-71
2023/07/01 01:06:18;;;;;;;;;;;18.20;99.90;;;;;;2040553;28;20399;-71
2023/07/01 01:07:23;;;;;;;;;;;18.20;99.90;;;;;;2045997;28;19973;-71
2023/07/01 01:08:43;;;;;;;;;;;18.20;99.90;;;;;;2034974;28;20281;-71
2023/07/01 01:10:05;;;;;;;;;;;18.20;99.90;;;;;;2039749;28;20292;-71
2023/07/01 01:11:05;;;;;;;;;;;18.20;99.90;;;;;;2040164;28;20536;-72
2023/07/01 01:12:09;;;;;;;;;;;18.20;99.90;;;;;;2040789;28;19911;-71
2023/07/01 01:13:09;;;;;;;;;;;18.20;99.90;;;;;;2041689;29;19914;-72
2023/07/01 01:14:11;;;;;;;;;;;18.20;99.90;;;;;;2039280;28;20275;-77
2023/07/01 01:15:11;;;;;;;;;;;18.20;99.90;;;;;;2038624;28;19957;-79
2023/07/01 01:16:12;;;;;;;;;;;18.20;99.90;;;;;;2038139;28;20021;-70
2023/07/01 01:17:13;;;;;;;;;;;18.20;99.90;;;;;;2037389;29;19926;-69
2023/07/01 01:18:16;;;;;;;;;;;18.20;99.90;;;;;;2040671;28;20709;-69
2023/07/01 01:19:21;;;;;;;;;;;18.30;99.90;;;;;;2044823;28;19919;-69
2023/07/01 01:20:22;;;;;;;;;;;18.30;99.90;;;;;;2043600;28;19942;-69
2023/07/01 01:21:24;;;;;;;;;;;18.30;99.90;;;;;;2043648;28;19914;-68
2023/07/01 01:22:26;;;;;;;;;;;18.30;99.90;;;;;;2044774;28;20549;-69
2023/07/01 01:23:38;;;;;;;;;;;18.30;99.90;;;;;;2043170;28;19945;-69
2023/07/01 01:24:41;;;;;;;;;;;18.30;99.90;;;;;;2038660;29;19914;-69
2023/07/01 01:25:43;;;;;;;;;;;18.30;99.90;;;;;;2042034;29;19960;-69
2023/07/01 01:26:47;;;;;;;;;;;18.20;99.90;;;;;;2038677;28;19919;-69
2023/07/01 01:27:48;;;;;;;;;;;18.20;99.90;;;;;;2039326;28;19914;-69
2023/07/01 01:28:48;;;;;;;;;;;18.20;99.90;;;;;;2039187;28;19946;-69
2023/07/01 01:29:49;;;;;;;;;;;18.20;99.90;;;;;;2028893;29;19962;-69
2023/07/01 01:30:50;;;;;;;;;;;18.20;99.90;;;;;;2043552;28;19920;-69
2023/07/01 01:31:51;;;;;;;;;;;18.20;99.90;;;;;;2049219;28;19910;-68
2023/07/01 01:32:51;;;;;;;;;;;18.20;99.90;;;;;;2047587;28;20650;-68
2023/07/01 01:33:52;;;;;;;;;;;18.20;99.90;;;;;;2047932;28;19957;-69
2023/07/01 01:34:52;;;;;;;;;;;18.20;99.90;;;;;;2040335;29;19957;-68
2023/07/01 01:35:56;;;;;;;;;;;18.20;99.90;;;;;;2048431;28;20362;-68
2023/07/01 01:36:57;;;;;;;;;;;18.20;99.90;;;;;;2038568;28;19915;-68
2023/07/01 01:38:04;;;;;;;;;;;18.20;99.90;;;;;;2038648;28;20033;-68
2023/07/01 01:39:06;;;;;;;;;;;18.10;99.90;;;;;;2038101;28;19969;-70
2023/07/01 01:40:13;;;;;;;;;;;18.10;99.90;;;;;;2038320;29;19922;-68
2023/07/01 01:41:27;;;;;;;;;;;18.20;99.90;;;;;;2039276;28;20616;-68
2023/07/01 01:42:30;;;;;;;;;;;18.20;99.90;;;;;;2039142;28;19961;-69
2023/07/01 01:43:37;;;;;;;;;;;18.10;99.90;;;;;;2039240;28;19919;-69
2023/07/01 01:44:45;;;;;;;;;;;18.20;99.90;;;;;;2036335;28;19914;-69
2023/07/01 01:45:47;;;;;;;;;;;18.20;99.90;;;;;;2035417;29;19910;-69
2023/07/01 01:46:48;;;;;;;;;;;18.20;99.90;;;;;;2036731;29;19915;-70
2023/07/01 01:47:49;;;;;;;;;;;18.10;99.90;;;;;;2041028;28;19915;-69
2023/07/01 01:48:50;;;;;;;;;;;18.10;99.90;;;;;;2031427;29;19942;-70
2023/07/01 01:49:54;;;;;;;;;;;18.10;99.90;;;;;;2036118;29;20005;-70
2023/07/01 01:50:55;;;;;;;;;;;18.10;99.90;;;;;;2037563;29;19918;-69
2023/07/01 01:51:57;;;;;;;;;;;18.10;99.90;;;;;;2035925;29;19914;-69
2023/07/01 01:52:58;;;;;;;;;;;18.10;99.90;;;;;;2040980;29;19961;-70
2023/07/01 01:53:58;;;;;;;;;;;18.10;99.90;;;;;;2038987;28;19953;-70
2023/07/01 01:55:00;;;;;;;;;;;18.10;99.90;;;;;;2037591;28;20001;-70
2023/07/01 01:56:01;;;;;;;;;;;18.10;99.90;;;;;;2037217;29;19921;-70
2023/07/01 01:57:01;;;;;;;;;;;18.10;99.90;;;;;;2039117;28;19914;-70
2023/07/01 01:58:02;;;;;;;;;;;18.10;99.90;;;;;;2038581;28;19914;-70
2023/07/01 01:59:03;;;;;;;;;;;18.10;99.90;;;;;;2040780;28;19994;-69
2023/07/01 02:00:08;;;;;;;;;;;18.10;99.90;;;;;;2047521;28;20341;-70
2023/07/01 02:01:15;;;;;;;;;;;18.10;99.90;;;;;;2042192;28;19914;-69
2023/07/01 02:02:15;;;;;;;;;;;18.10;99.90;;;;;;2043882;28;19914;-69
2023/07/01 02:03:16;;;;;;;;;;;18.10;99.90;;;;;;2047448;28;19933;-68
2023/07/01 02:04:16;;;;;;;;;;;18.10;99.90;;;;;;2040427;29;20381;-70
2023/07/01 02:05:17;;;;;;;;;;;18.10;99.90;;;;;;2047985;28;20312;-69
2023/07/01 02:06:17;;;;;;;;;;;18.00;99.90;;;;;;2046157;28;19936;-69
2023/07/01 02:07:18;;;;;;;;;;;18.00;99.90;;;;;;2041913;28;19914;-69
2023/07/01 02:08:18;;;;;;;;;;;18.00;99.90;;;;;;2039776;29;19997;-69
2023/07/01 02:09:19;;;;;;;;;;;18.00;99.90;;;;;;2040179;28;19953;-70
2023/07/01 02:10:22;;;;;;;;;;;18.00;99.90;;;;;;2039462;29;20008;-69
2023/07/01 02:11:22;;;;;;;;;;;18.00;99.90;;;;;;2032633;29;20583;-69
2023/07/01 02:12:26;;;;;;;;;;;18.00;99.90;;;;;;2041148;29;19964;-69
2023/07/01 02:13:26;;;;;;;;;;;18.00;99.90;;;;;;2037162;28;19911;-70
2023/07/01 02:14:27;;;;;;;;;;;18.00;99.90;;;;;;2029871;29;20010;-69
2023/07/01 02:15:27;;;;;;;;;;;18.00;99.90;;;;;;2030238;29;19937;-69
2023/07/01 02:16:32;;;;;;;;;;;18.00;99.90;;;;;;2029162;29;19915;-69
2023/07/01 02:17:32;;;;;;;;;;;18.00;99.90;;;;;;2036171;29;19966;-71
2023/07/01 02:18:33;;;;;;;;;;;18.00;99.90;;;;;;2037881;29;19915;-69
2023/07/01 02:19:33;;;;;;;;;;;18.00;99.90;;;;;;2043060;28;19924;-70
2023/07/01 02:20:34;;;;;;;;;;;18.00;99.90;;;;;;2048590;28;19914;-70
2023/07/01 02:21:34;;;;;;;;;;;17.90;99.90;;;;;;2038797;29;19950;-69
2023/07/01 02:22:35;;;;;;;;;;;17.90;99.90;;;;;;2035445;29;20357;-70
2023/07/01 02:23:35;;;;;;;;;;;17.90;99.90;;;;;;2043692;28;19946;-69
2023/07/01 02:24:36;;;;;;;;;;;17.90;99.90;;;;;;2042348;29;20488;-70
2023/07/01 02:25:36;;;;;;;;;;;17.90;99.90;;;;;;2036806;29;19911;-69
2023/07/01 02:26:37;;;;;;;;;;;17.90;99.90;;;;;;2038120;29;19914;-69
2023/07/01 02:27:37;;;;;;;;;;;17.90;99.90;;;;;;2036154;28;19925;-70
2023/07/01 02:28:38;;;;;;;;;;;17.90;99.90;;;;;;2035314;29;19922;-71
2023/07/01 02:29:38;;;;;;;;;;;17.80;99.90;;;;;;2041583;29;19914;-69
2023/07/01 02:30:39;;;;;;;;;;;17.80;99.90;;;;;;2040127;28;20421;-69
2023/07/01 02:31:39;;;;;;;;;;;17.80;99.90;;;;;;2047490;28;19921;-69
2023/07/01 02:32:40;;;;;;;;;;;17.80;99.90;;;;;;2047191;28;20424;-69
2023/07/01 02:33:40;;;;;;;;;;;17.80;99.90;;;;;;2048222;28;19910;-69
2023/07/01 02:34:41;;;;;;;;;;;17.70;99.90;;;;;;2030404;28;20410;-68
2023/07/01 02:35:41;;;;;;;;;;;17.70;99.90;;;;;;2037141;29;19954;-68
2023/07/01 02:36:43;;;;;;;;;;;17.70;99.90;;;;;;2044531;28;20393;-69
2023/07/01 02:37:43;;;;;;;;;;;17.80;99.90;;;;;;2036788;29;20651;-68
2023/07/01 02:38:44;;;;;;;;;;;17.70;99.90;;;;;;2027550;29;19944;-69
2023/07/01 02:39:46;;;;;;;;;;;17.80;99.90;;;;;;2029226;29;20489;-69
2023/07/01 02:40:47;;;;;;;;;;;17.80;99.90;;;;;;2041212;29;19957;-68
2023/07/01 02:41:47;;;;;;;;;;;17.80;99.90;;;;;;2038522;28;19914;-69
2023/07/01 02:42:48;;;;;;;;;;;17.80;99.90;;;;;;2037965;28;19921;-69
2023/07/01 02:43:48;;;;;;;;;;;17.80;99.90;;;;;;2038248;28;19911;-69
2023/07/01 02:44:49;;;;;;;;;;;17.80;99.90;;;;;;2038442;28;20586;-70
2023/07/01 02:45:49;;;;;;;;;;;17.80;99.90;;;;;;2040423;28;19988;-69
2023/07/01 02:46:50;;;;;;;;;;;17.80;99.90;;;;;;2049177;28;19954;-69
2023/07/01 02:47:51;;;;;;;;;;;17.90;99.90;;;;;;2043120;28;19911;-69
2023/07/01 02:48:52;;;;;;;;;;;17.80;99.90;;;;;;2035820;29;20418;-69
2023/07/01 02:49:52;;;;;;;;;;;17.80;99.90;;;;;;2035672;29;20013;-69
2023/07/01 02:50:53;;;;;;;;;;;17.90;99.90;;;;;;2048757;28;19914;-69
2023/07/01 02:51:53;;;;;;;;;;;17.90;99.90;;;;;;2046162;28;19913;-69
2023/07/01 02:52:54;;;;;;;;;;;17.90;99.90;;;;;;2038214;28;20464;-69
2023/07/01 02:53:54;;;;;;;;;;;17.90;99.90;;;;;;2037833;28;19910;-69
2023/07/01 02:54:55;;;;;;;;;;;17.90;99.90;;;;;;2048436;28;20009;-68
2023/07/01 02:55:58;;;;;;;;;;;17.90;99.90;;;;;;2046638;28;20337;-69
2023/07/01 02:56:58;;;;;;;;;;;17.90;99.90;;;;;;2046558;28;19972;-69
2023/07/01 02:57:59;;;;;;;;;;;17.90;99.90;;;;;;2039523;29;19919;-69
2023/07/01 02:58:59;;;;;;;;;;;17.90;99.90;;;;;;2046822;28;19918;-68
2023/07/01 03:00:00;;;;;;;;;;;17.90;99.90;;;;;;2042870;28;19910;-69
2023/07/01 03:01:01;;;;;;;;;;;17.90;99.90;;;;;;2039980;29;19914;-69
2023/07/01 03:02:04;;;;;;;;;;;17.90;99.90;;;;;;2038638;28;19957;-69
2023/07/01 03:03:08;;;;;;;;;;;17.90;99.90;;;;;;2038556;28;20017;-69
2023/07/01 03:04:09;;;;;;;;;;;17.90;99.90;;;;;;2038032;28;19911;-69
2023/07/01 03:05:09;;;;;;;;;;;17.90;99.90;;;;;;2040779;28;19915;-70
2023/07/01 03:06:11;;;;;;;;;;;17.90;99.90;;;;;;2039006;28;20283;-70
2023/07/01 03:07:11;;;;;;;;;;;17.90;99.90;;;;;;2038836;28;20350;-69
2023/07/01 03:08:12;;;;;;;;;;;17.90;99.90;;;;;;2045002;28;19919;-70
2023/07/01 03:09:12;;;;;;;;;;;17.90;99.90;;;;;;2042170;28;19922;-69
2023/07/01 03:10:13;;;;;;;;;;;17.90;99.90;;;;;;2034828;28;20001;-70
2023/07/01 03:11:14;;;;;;;;;;;17.90;99.90;;;;;;2036189;29;19918;-70
2023/07/01 03:12:14;;;;;;;;;;;17.90;99.90;;;;;;2039821;29;20448;-69
2023/07/01 03:13:16;;;;;;;;;;;17.90;99.90;;;;;;2035822;28;19915;-71
2023/07/01 03:14:16;;;;;;;;;;;17.80;99.90;;;;;;2027764;29;19978;-69
2023/07/01 03:15:17;;;;;;;;;;;17.90;99.90;;;;;;2040517;29;20039;-69
2023/07/01 03:16:18;;;;;;;;;;;17.80;99.90;;;;;;2035771;29;19922;-69
2023/07/01 03:17:21;;;;;;;;;;;17.90;99.90;;;;;;2035635;29;19915;-69
2023/07/01 03:18:21;;;;;;;;;;;17.90;99.90;;;;;;2047102;28;19996;-69
2023/07/01 03:19:23;;;;;;;;;;;17.90;99.90;;;;;;2047113;28;19944;-69
2023/07/01 03:20:23;;;;;;;;;;;17.90;99.90;;;;;;2048168;28;19933;-69
2023/07/01 03:21:26;;;;;;;;;;;17.80;99.90;;;;;;2037599;28;20017;-69
2023/07/01 03:22:27;;;;;;;;;;;17.80;99.90;;;;;;2036559;28;19993;-69
2023/07/01 03:23:28;;;;;;;;;;;17.80;99.90;;;;;;2034582;29;19914;-69
2023/07/01 03:24:33;;;;;;;;;;;17.80;99.90;;;;;;2040582;29;19915;-68
2023/07/01 03:25:35;;;;;;;;;;;17.80;99.90;;;;;;2048230;28;19914;-68
2023/07/01 03:26:36;;;;;;;;;;;17.80;99.90;;;;;;2040787;29;19911;-69
2023/07/01 03:27:37;;;;;;;;;;;17.80;99.90;;;;;;2042962;28;19998;-69
2023/07/01 03:28:37;;;;;;;;;;;17.80;99.90;;;;;;2044386;28;19996;-70
2023/07/01 03:29:39;;;;;;;;;;;17.80;99.90;;;;;;2040993;28;20045;-69
2023/07/01 03:30:39;;;;;;;;;;;17.80;99.90;;;;;;2042922;28;19914;-69
2023/07/01 03:31:40;;;;;;;;;;;17.80;99.90;;;;;;2039297;29;19949;-69
2023/07/01 03:32:40;;;;;;;;;;;17.80;99.90;;;;;;2035439;29;20361;-70
2023/07/01 03:33:41;;;;;;;;;;;17.80;99.90;;;;;;2041270;29;19918;-69
2023/07/01 03:34:41;;;;;;;;;;;17.80;99.90;;;;;;2040037;29;20174;-70
2023/07/01 03:35:42;;;;;;;;;;;17.80;99.90;;;;;;2036144;29;20029;-69
2023/07/01 03:36:42;;;;;;;;;;;17.70;99.90;;;;;;2042538;28;20696;-68
2023/07/01 03:37:43;;;;;;;;;;;17.70;99.90;;;;;;2044486;28;19953;-70
2023/07/01 03:38:43;;;;;;;;;;;17.70;99.90;;;;;;2042236;28;19918;-70
2023/07/01 03:39:44;;;;;;;;;;;17.70;99.90;;;;;;2044037;28;20301;-70
2023/07/01 03:40:44;;;;;;;;;;;17.70;99.90;;;;;;2038812;28;19914;-70
2023/07/01 03:41:45;;;;;;;;;;;17.70;99.90;;;;;;2038946;28;19939;-70
2023/07/01 03:42:45;;;;;;;;;;;17.70;99.90;;;;;;2040689;28;19922;-70
2023/07/01 03:43:46;;;;;;;;;;;17.70;99.90;;;;;;2039030;28;19919;-70
2023/07/01 03:44:47;;;;;;;;;;;17.70;99.90;;;;;;2035991;29;19938;-70
2023/07/01 03:45:47;;;;;;;;;;;17.80;99.90;;;;;;2039788;29;19917;-68
2023/07/01 03:46:48;;;;;;;;;;;17.80;99.90;;;;;;2041424;28;19953;-68
2023/07/01 03:47:48;;;;;;;;;;;17.80;99.90;;;;;;2038552;28;19942;-69
2023/07/01 03:48:48;;;;;;;;;;;17.80;99.90;;;;;;2038522;28;19910;-69
2023/07/01 03:49:49;;;;;;;;;;;17.80;99.90;;;;;;2038116;28;19911;-68
2023/07/01 03:50:49;;;;;;;;;;;17.80;99.90;;;;;;2037251;29;19983;-69
2023/07/01 03:51:50;;;;;;;;;;;17.80;99.90;;;;;;2039804;29;20001;-71
2023/07/01 03:52:51;;;;;;;;;;;17.80;99.90;;;;;;2035934;29;19919;-69
2023/07/01 03:53:51;;;;;;;;;;;17.80;99.90;;;;;;2039942;29;19914;-70
2023/07/01 03:54:52;;;;;;;;;;;17.80;99.90;;;;;;2044151;28;20416;-69
2023/07/01 03:55:52;;;;;;;;;;;17.80;99.90;;;;;;2045229;28;19918;-69
2023/07/01 03:56:53;;;;;;;;;;;17.80;99.90;;;;;;2037091;28;19915;-68
2023/07/01 03:57:53;;;;;;;;;;;17.80;99.90;;;;;;2043049;28;19917;-69
2023/07/01 03:58:54;;;;;;;;;;;17.80;99.90;;;;;;2046667;28;20445;-69
2023/07/01 03:59:54;;;;;;;;;;;17.80;99.90;;;;;;2041620;28;19933;-69
2023/07/01 04:00:55;;;;;;;;;;;17.80;99.90;;;;;;2047040;28;19914;-69
2023/07/01 04:01:55;;;;;;;;;;;17.80;99.90;;;;;;2042961;28;20383;-70
2023/07/01 04:02:57;;;;;;;;;;;17.80;99.90;;;;;;2037357;29;19911;-69
2023/07/01 04:03:57;;;;;;;;;;;17.80;99.90;;;;;;2041241;29;19914;-69
2023/07/01 04:05:09;;;;;;;;;;;17.90;99.90;;;;;;2038603;29;19997;-68
2023/07/01 04:06:10;;;;;;;;;;;17.90;99.90;;;;;;2035032;29;19914;-68
2023/07/01 04:07:10;;;;;;;;;;;17.90;99.90;;;;;;2038505;29;19918;-70
2023/07/01 04:08:11;;;;;;;;;;;17.90;99.90;;;;;;2036158;29;19914;-70
2023/07/01 04:09:14;;;;;;;;;;;17.90;99.90;;;;;;2039984;28;19919;-70
2023/07/01 04:10:15;;;;;;;;;;;17.90;99.90;;;;;;2039196;28;19911;-69
2023/07/01 04:11:15;;;;;;;;;;;17.90;99.90;;;;;;2033004;29;19914;-70
2023/07/01 04:12:16;;;;;;;;;;;17.90;99.90;;;;;;2039911;29;19942;-70
2023/07/01 04:13:17;;;;;;;;;;;17.90;99.90;;;;;;2035966;29;19914;-69
2023/07/01 04:14:17;;;;;;;;;;;18.00;99.90;;;;;;2037388;29;20394;-69
2023/07/01 04:15:17;;;;;;;;;;;18.00;99.90;;;;;;2047417;28;19917;-69
2023/07/01 04:16:18;;;;;;;;;;;18.00;99.90;;;;;;2048407;28;20413;-70
2023/07/01 04:17:18;;;;;;;;;;;18.10;99.90;;;;;;2041687;29;19974;-70
2023/07/01 04:18:20;;;;;;;;;;;18.10;99.90;;;;;;2039127;28;19977;-69
2023/07/01 04:19:20;;;;;;;;;;;18.10;99.90;;;;;;2047115;28;19922;-70
2023/07/01 04:20:21;;;;;;;;;;;18.10;99.90;;;;;;2039917;28;20622;-70
2023/07/01 04:21:21;;;;;;;;;;;18.10;99.90;;;;;;2042639;28;19911;-69
2023/07/01 04:22:22;;;;;;;;;;;18.10;99.90;;;;;;2039055;28;20362;-69
2023/07/01 04:23:23;;;;;;;;;;;18.20;99.90;;;;;;2037387;28;19941;-70
2023/07/01 04:24:23;;;;;;;;;;;18.20;99.90;;;;;;2041182;28;19910;-70
2023/07/01 04:25:24;;;;;;;;;;;18.20;99.90;;;;;;2049620;28;19918;-70
2023/07/01 04:26:26;;;;;;;;;;;18.30;99.90;;;;;;2039850;28;19917;-69
2023/07/01 04:27:27;;;;;;;;;;;18.30;99.90;;;;;;2039009;28;19954;-69
2023/07/01 04:28:27;;;;;;;;;;;18.30;99.90;;;;;;2038545;28;19917;-69
2023/07/01 04:29:28;;;;;;;;;;;18.30;99.90;;;;;;2037715;29;19921;-68
2023/07/01 04:30:28;;;;;;;;;;;18.40;99.90;;;;;;2039476;29;19911;-69
2023/07/01 04:31:29;;;;;;;;;;;18.50;99.90;;;;;;2037155;29;19973;-69
2023/07/01 04:32:29;;;;;;;;;;;18.50;99.90;;;;;;2037744;29;19954;-69
2023/07/01 04:33:30;;;;;;;;;;;18.50;99.90;;;;;;2048367;28;19918;-69
2023/07/01 04:34:30;;;;;;;;;;;18.50;99.90;;;;;;2049730;28;19918;-71
2023/07/01 04:35:31;;;;;;;;;;;18.50;99.90;;;;;;2040770;28;20424;-70
2023/07/01 04:36:31;;;;;;;;;;;18.50;99.90;;;;;;2038851;28;20021;-70
2023/07/01 04:37:32;;;;;;;;;;;18.40;99.90;;;;;;2039281;29;19978;-69
2023/07/01 04:38:32;;;;;;;;;;;18.40;99.90;;;;;;2038192;29;20663;-70
2023/07/01 04:39:33;;;;;;;;;;;18.40;99.90;;;;;;2047988;28;19914;-70
2023/07/01 04:40:35;;;;;;;;;;;18.40;99.90;;;;;;2048220;28;19914;-70
2023/07/01 04:41:35;;;;;;;;;;;18.40;99.90;;;;;;2040646;29;19914;-69
2023/07/01 04:42:43;;;;;;;;;;;18.40;99.90;;;;;;2040936;29;19910;-69
2023/07/01 04:43:44;;;;;;;;;;;18.40;99.90;;;;;;2040964;29;19925;-69
2023/07/01 04:44:44;;;;;;;;;;;18.40;99.90;;;;;;2038258;29;19910;-70
2023/07/01 04:45:44;;;;;;;;;;;18.50;99.90;;;;;;2043486;28;19949;-69
2023/07/01 04:46:45;;;;;;;;;;;18.50;99.90;;;;;;2044965;28;20865;-70
2023/07/01 04:47:46;;;;;;;;;;;18.50;99.90;;;;;;2039340;28;19914;-70
2023/07/01 04:48:46;;;;;;;;;;;18.50;99.90;;;;;;2038335;29;19914;-69
2023/07/01 04:49:47;;;;;;;;;;;18.60;99.90;;;;;;2036546;29;20413;-70
2023/07/01 04:50:47;;;;;;;;;;;18.60;99.90;;;;;;2036974;29;19953;-69
2023/07/01 04:51:48;;;;;;;;;;;18.60;99.90;;;;;;2047071;28;19937;-70
2023/07/01 04:52:48;;;;;;;;;;;18.70;99.90;;;;;;2047904;28;19917;-69
2023/07/01 04:53:49;;;;;;;;;;;18.80;99.90;;;;;;2045215;28;20286;-70
2023/07/01 04:54:50;;;;;;;;;;;18.90;99.90;;;;;;2046084;28;19972;-69
2023/07/01 04:55:50;;;;;;;;;;;19.00;99.90;;;;;;2038631;29;19911;-69
2023/07/01 04:56:51;;;;;;;;;;;19.10;99.90;;;;;;2039405;28;19934;-68
2023/07/01 04:57:51;;;;;;;;;;;19.20;99.90;;;;;;2042665;28;19946;-71
2023/07/01 04:58:52;;;;;;;;;;;19.30;99.90;;;;;;2040530;29;20018;-71
2023/07/01 04:59:53;;;;;;;;;;;19.40;99.90;;;;;;2049426;28;20428;-70
2023/07/01 05:00:53;;;;;;;;;;;19.60;99.90;;;;;;2047934;28;20339;-70
2023/07/01 05:01:54;;;;;;;;;;;19.60;99.90;;;;;;2041200;29;20013;-70
2023/07/01 05:02:54;;;;;;;;;;;19.50;99.90;;;;;;2038683;29;20662;-69
2023/07/01 05:03:54;;;;;;;;;;;19.50;99.90;;;;;;2039122;29;19922;-72
2023/07/01 05:04:55;;;;;;;;;;;19.50;99.90;;;;;;2039716;28;20300;-70
2023/07/01 05:05:55;;;;;;;;;;;19.30;99.90;;;;;;2039263;29;19950;-70
2023/07/01 05:06:56;;;;;;;;;;;19.30;99.90;;;;;;2039900;28;19918;-70
2023/07/01 05:07:56;;;;;;;;;;;19.30;99.90;;;;;;2035835;29;19910;-70
2023/07/01 05:08:57;;;;;;;;;;;19.20;99.90;;;;;;2034484;29;19917;-70
2023/07/01 05:09:58;;;;;;;;;;;19.20;99.90;;;;;;2047906;28;19918;-70
2023/07/01 05:10:58;;;;;;;;;;;19.10;99.90;;;;;;2039123;29;19917;-72
2023/07/01 05:11:59;;;;;;;;;;;18.90;99.90;;;;;;2036297;29;19914;-71
2023/07/01 05:12:59;;;;;;;;;;;18.90;99.90;;;;;;2037247;29;20453;-71
2023/07/01 05:14:00;;;;;;;;;;;18.80;99.90;;;;;;2039923;28;19915;-71
2023/07/01 05:15:00;;;;;;;;;;;18.80;99.90;;;;;;2041204;28;19943;-70
2023/07/01 05:16:01;;;;;;;;;;;18.70;99.90;;;;;;2036787;29;20080;-71
2023/07/01 05:17:01;;;;;;;;;;;18.70;99.90;;;;;;2040166;29;19922;-70
2023/07/01 05:18:02;;;;;;;;;;;18.80;99.90;;;;;;2043305;28;19921;-70
2023/07/01 05:19:02;;;;;;;;;;;18.80;99.90;;;;;;2047482;28;19922;-70
2023/07/01 05:20:03;;;;;;;;;;;18.90;99.90;;;;;;2041209;29;20073;-70
2023/07/01 05:21:03;;;;;;;;;;;18.90;99.90;;;;;;2039568;28;20012;-70
2023/07/01 05:22:04;;;;;;;;;;;19.00;99.90;;;;;;2039894;28;20013;-70
2023/07/01 05:23:04;;;;;;;;;;;19.00;99.90;;;;;;2039376;28;19915;-70
2023/07/01 05:24:08;;;;;;;;;;;19.00;99.90;;;;;;2042093;28;20373;-70
2023/07/01 05:25:08;;;;;;;;;;;19.10;99.90;;;;;;2040069;28;19923;-70
2023/07/01 05:26:09;;;;;;;;;;;19.20;99.90;;;;;;2040648;29;19918;-69
2023/07/01 05:27:09;;;;;;;;;;;19.40;99.90;;;;;;2037149;29;20259;-68
2023/07/01 05:28:10;;;;;;;;;;;19.60;99.90;;;;;;2040670;29;19993;-71
2023/07/01 05:29:10;;;;;;;;;;;19.70;99.90;;;;;;2037899;29;19915;-70
2023/07/01 05:30:10;;;;;;;;;;;19.90;99.90;;;;;;2046474;28;19945;-70
2023/07/01 05:31:11;;;;;;;;;;;20.20;99.90;;;;;;2044776;28;19918;-70
2023/07/01 05:32:11;;;;;;;;;;;20.30;99.90;;;;;;2036180;29;19996;-70
2023/07/01 05:33:12;;;;;;;;;;;20.30;99.90;;;;;;2037991;29;19918;-70
2023/07/01 05:34:12;;;;;;;;;;;20.40;99.90;;;;;;2036274;29;19914;-71
2023/07/01 05:35:13;;;;;;;;;;;20.50;99.90;;;;;;2036952;29;20366;-70
2023/07/01 05:36:13;;;;;;;;;;;20.50;99.90;;;;;;2040588;29;20011;-69
2023/07/01 05:37:14;;;;;;;;;;;20.50;99.90;;;;;;2041845;29;19910;-70
2023/07/01 05:38:14;;;;;;;;;;;20.50;99.90;;;;;;2039726;28;19957;-70
2023/07/01 05:39:15;;;;;;;;;;;20.50;99.90;;;;;;2039831;28;19961;-70
2023/07/01 05:40:15;;;;;;;;;;;20.60;99.90;;;;;;2039010;28;20020;-70
2023/07/01 05:41:16;;;;;;;;;;;20.80;99.90;;;;;;2039241;28;20013;-70
2023/07/01 05:42:16;;;;;;;;;;;20.90;99.90;;;;;;2041050;28;19922;-70
2023/07/01 05:43:17;;;;;;;;;;;21.00;99.90;;;;;;2040024;29;20775;-70
2023/07/01 05:44:17;;;;;;;;;;;21.00;99.90;;;;;;2040589;29;19914;-70
2023/07/01 05:45:18;;;;;;;;;;;20.90;99.90;;;;;;2040633;29;19914;-70
2023/07/01 05:46:18;;;;;;;;;;;21.00;99.90;;;;;;2041165;29;19993;-70
2023/07/01 05:47:19;;;;;;;;;;;21.10;99.90;;;;;;2038622;28;20004;-70
2023/07/01 05:48:19;;;;;;;;;;;21.30;99.90;;;;;;2038647;28;20413;-71
2023/07/01 05:49:20;;;;;;;;;;;21.50;99.90;;;;;;2039192;29;20410;-72
2023/07/01 05:50:20;;;;;;;;;;;21.70;99.90;;;;;;2041422;28;19911;-71
2023/07/01 05:51:21;;;;;;;;;;;21.80;99.90;;;;;;2032581;29;19911;-69
2023/07/01 05:52:21;;;;;;;;;;;21.90;99.90;;;;;;2039770;29;19993;-69
2023/07/01 05:53:22;;;;;;;;;;;22.00;99.90;;;;;;2038298;29;20013;-69
2023/07/01 05:54:23;;;;;;;;;;;22.30;99.90;;;;;;2044180;28;19914;-70
2023/07/01 05:55:23;;;;;;;;;;;22.40;99.90;;;;;;2046608;28;20308;-70
2023/07/01 05:56:24;;;;;;;;;;;22.70;99.90;;;;;;2039371;28;19919;-70